sensor_id;sensor_type;location;lat;lon;timestamp;temperature;humidity
8778;DHT22;4425;50.872;4.712;2022-09-02T00:01:52;18.90;99.90
8778;DHT22;4425;50.872;4.712;2022-09-02T00:04:22;18.90;99.90
8778;DHT22;4425;50.872;4.712;2022-09-02T00:06:52;18.80;99.90
8778;DHT22;4425;50.872;4.712;2022-09-02T00:09:21;18.80;99.90
8778;DHT22;4425;50.872;4.712;2022-09-02T00:11:51;18.70;99.90
8778;DHT22;4425;50.872;4.712;2022-09-02T00:14:24;18.70;99.90
8778;DHT22;4425;50.872;4.712;2022-09-02T00:16:51;18.70;99.90
8778;DHT22;4425;50.872;4.712;2022-09-02T00:19:19;18.60;99.90
8778;DHT22;4425;50.872;4.712;2022-09-02T00:21:47;18.60;99.90
8778;DHT22;4425;50.872;4.712;2022-09-02T00:24:15;18.60;99.90
8778;DHT22;4425;50.872;4.712;2022-09-02T00:26:42;18.60;99.90
8778;DHT22;4425;50.872;4.712;2022-09-02T00:29:14;18.50;99.90
8778;DHT22;4425;50.872;4.712;2022-09-02T00:31:41;18.50;99.90
8778;DHT22;4425;50.872;4.712;2022-09-02T00:34:09;18.50;99.90
8778;DHT22;4425;50.872;4.712;2022-09-02T00:36:38;18.50;99.90
8778;DHT22;4425;50.872;4.712;2022-09-02T00:39:08;18.50;99.90
8778;DHT22;4425;50.872;4.712;2022-09-02T00:41:37;18.50;99.90
8778;DHT22;4425;50.872;4.712;2022-09-02T00:44:07;18.40;99.90
8778;DHT22;4425;50.872;4.712;2022-09-02T00:46:36;18.40;99.90
8778;DHT22;4425;50.872;4.712;2022-09-02T00:49:07;18.30;99.90
8778;DHT22;4425;50.872;4.712;2022-09-02T00:51:38;18.30;99.90
8778;DHT22;4425;50.872;4.712;2022-09-02T00:54:07;18.30;99.90
8778;DHT22;4425;50.872;4.712;2022-09-02T00:56:37;18.30;99.90
8778;DHT22;4425;50.872;4.712;2022-09-02T00:59:07;18.30;99.90
8778;DHT22;4425;50.872;4.712;2022-09-02T01:01:41;18.30;99.90
8778;DHT22;4425;50.872;4.712;2022-09-02T01:04:08;18.30;99.90
8778;DHT22;4425;50.872;4.712;2022-09-02T01:06:35;18.30;99.90
8778;DHT22;4425;50.872;4.712;2022-09-02T01:09:08;18.30;99.90
8778;DHT22;4425;50.872;4.712;2022-09-02T01:11:38;18.30;99.90
8778;DHT22;4425;50.872;4.712;2022-09-02T01:14:06;18.30;99.90
8778;DHT22;4425;50.872;4.712;2022-09-02T01:16:40;18.40;99.90
8778;DHT22;4425;50.872;4.712;2022-09-02T01:19:15;18.40;99.90
8778;DHT22;4425;50.872;4.712;2022-09-02T01:21:49;18.30;99.90
8778;DHT22;4425;50.872;4.712;2022-09-02T01:24:20;18.30;99.90
8778;DHT22;4425;50.872;4.712;2022-09-02T01:26:52;18.20;99.90
8778;DHT22;4425;50.872;4.712;2022-09-02T01:29:19;18.20;99.90
8778;DHT22;4425;50.872;4.712;2022-09-02T01:31:46;18.20;99.90
8778;DHT22;4425;50.872;4.712;2022-09-02T01:34:15;18.20;99.90
8778;DHT22;4425;50.872;4.712;2022-09-02T01:36:44;18.10;99.90
8778;DHT22;4425;50.872;4.712;2022-09-02T01:39:13;18.10;99.90
8778;DHT22;4425;50.872;4.712;2022-09-02T01:41:41;18.00;99.90
8778;DHT22;4425;50.872;4.712;2022-09-02T01:44:08;18.00;99.90
8778;DHT22;4425;50.872;4.712;2022-09-02T01:46:37;17.90;99.90
8778;DHT22;4425;50.872;4.712;2022-09-02T01:49:05;17.90;99.90
8778;DHT22;4425;50.872;4.712;2022-09-02T01:51:32;17.90;99.90
8778;DHT22;4425;50.872;4.712;2022-09-02T01:54:02;17.90;99.90
8778;DHT22;4425;50.872;4.712;2022-09-02T01:56:31;17.90;99.90
8778;DHT22;4425;50.872;4.712;2022-09-02T01:58:58;17.80;99.90
8778;DHT22;4425;50.872;4.712;2022-09-02T02:01:27;17.80;99.90
8778;DHT22;4425;50.872;4.712;2022-09-02T02:03:54;17.80;99.90
8778;DHT22;4425;50.872;4.712;2022-09-02T02:06:22;17.70;99.90
8778;DHT22;4425;50.872;4.712;2022-09-02T02:08:49;17.50;99.90
8778;DHT22;4425;50.872;4.712;2022-09-02T02:11:23;17.60;99.90
8778;DHT22;4425;50.872;4.712;2022-09-02T02:13:52;17.60;99.90
8778;DHT22;4425;50.872;4.712;2022-09-02T02:16:20;17.60;99.90
8778;DHT22;4425;50.872;4.712;2022-09-02T02:18:47;17.70;99.90
8778;DHT22;4425;50.872;4.712;2022-09-02T02:21:16;17.70;99.90
8778;DHT22;4425;50.872;4.712;2022-09-02T02:23:43;17.60;99.90
8778;DHT22;4425;50.872;4.712;2022-09-02T02:26:11;17.60;99.90
8778;DHT22;4425;50.872;4.712;2022-09-02T02:28:38;17.60;99.90
8778;DHT22;4425;50.872;4.712;2022-09-02T02:31:06;17.60;99.90
8778;DHT22;4425;50.872;4.712;2022-09-02T02:33:34;17.60;99.90
8778;DHT22;4425;50.872;4.712;2022-09-02T02:36:02;17.60;99.90
8778;DHT22;4425;50.872;4.712;2022-09-02T02:38:29;17.60;99.90
8778;DHT22;4425;50.872;4.712;2022-09-02T02:40:57;17.60;99.90
8778;DHT22;4425;50.872;4.712;2022-09-02T02:43:25;17.60;99.90
8778;DHT22;4425;50.872;4.712;2022-09-02T02:45:53;17.60;99.90
8778;DHT22;4425;50.872;4.712;2022-09-02T02:48:21;17.50;99.90
8778;DHT22;4425;50.872;4.712;2022-09-02T02:50:49;17.50;99.90
8778;DHT22;4425;50.872;4.712;2022-09-02T02:53:16;17.40;99.90
8778;DHT22;4425;50.872;4.712;2022-09-02T02:55:45;17.40;99.90
8778;DHT22;4425;50.872;4.712;2022-09-02T02:58:12;17.30;99.90
8778;DHT22;4425;50.872;4.712;2022-09-02T03:00:39;17.30;99.90
8778;DHT22;4425;50.872;4.712;2022-09-02T03:03:08;17.20;99.90
8778;DHT22;4425;50.872;4.712;2022-09-02T03:05:38;17.20;99.90
8778;DHT22;4425;50.872;4.712;2022-09-02T03:08:07;17.20;99.90
8778;DHT22;4425;50.872;4.712;2022-09-02T03:10:35;17.20;99.90
8778;DHT22;4425;50.872;4.712;2022-09-02T03:13:03;17.20;99.90
8778;DHT22;4425;50.872;4.712;2022-09-02T03:15:32;17.30;99.90
8778;DHT22;4425;50.872;4.712;2022-09-02T03:17:59;17.30;99.90
8778;DHT22;4425;50.872;4.712;2022-09-02T03:20:26;17.30;99.90
8778;DHT22;4425;50.872;4.712;2022-09-02T03:22:57;17.30;99.90
8778;DHT22;4425;50.872;4.712;2022-09-02T03:25:26;17.30;99.90
8778;DHT22;4425;50.872;4.712;2022-09-02T03:27:53;17.40;99.90
8778;DHT22;4425;50.872;4.712;2022-09-02T03:30:22;17.40;99.90
8778;DHT22;4425;50.872;4.712;2022-09-02T03:32:50;17.50;99.90
8778;DHT22;4425;50.872;4.712;2022-09-02T03:35:20;17.50;99.90
8778;DHT22;4425;50.872;4.712;2022-09-02T03:37:48;17.50;99.90
8778;DHT22;4425;50.872;4.712;2022-09-02T03:40:21;17.60;99.90
8778;DHT22;4425;50.872;4.712;2022-09-02T03:42:48;17.60;99.90
8778;DHT22;4425;50.872;4.712;2022-09-02T03:45:16;17.50;99.90
8778;DHT22;4425;50.872;4.712;2022-09-02T03:47:45;17.60;99.90
8778;DHT22;4425;50.872;4.712;2022-09-02T03:50:17;17.50;99.90
8778;DHT22;4425;50.872;4.712;2022-09-02T03:52:45;17.50;99.90
8778;DHT22;4425;50.872;4.712;2022-09-02T03:55:14;17.60;99.90
8778;DHT22;4425;50.872;4.712;2022-09-02T03:57:44;17.60;99.90
8778;DHT22;4425;50.872;4.712;2022-09-02T04:00:14;17.60;99.90
8778;DHT22;4425;50.872;4.712;2022-09-02T04:02:41;17.60;99.90
8778;DHT22;4425;50.872;4.712;2022-09-02T04:05:10;17.70;99.90
8778;DHT22;4425;50.872;4.712;2022-09-02T04:07:41;17.70;99.90
8778;DHT22;4425;50.872;4.712;2022-09-02T04:10:10;17.80;99.90
8778;DHT22;4425;50.872;4.712;2022-09-02T04:12:38;17.80;99.90
8778;DHT22;4425;50.872;4.712;2022-09-02T04:15:10;17.80;99.90
8778;DHT22;4425;50.872;4.712;2022-09-02T04:17:39;17.80;99.90
8778;DHT22;4425;50.872;4.712;2022-09-02T04:20:11;17.80;99.90
8778;DHT22;4425;50.872;4.712;2022-09-02T04:22:40;17.70;99.90
8778;DHT22;4425;50.872;4.712;2022-09-02T04:25:13;17.70;99.90
8778;DHT22;4425;50.872;4.712;2022-09-02T04:27:42;17.70;99.90
8778;DHT22;4425;50.872;4.712;2022-09-02T04:30:11;17.60;99.90
8778;DHT22;4425;50.872;4.712;2022-09-02T04:32:40;17.60;99.90
8778;DHT22;4425;50.872;4.712;2022-09-02T04:35:08;17.60;99.90
8778;DHT22;4425;50.872;4.712;2022-09-02T04:37:35;17.60;99.90
8778;DHT22;4425;50.872;4.712;2022-09-02T04:40:04;17.60;99.90
8778;DHT22;4425;50.872;4.712;2022-09-02T04:42:32;17.60;99.90
8778;DHT22;4425;50.872;4.712;2022-09-02T04:45:00;17.60;99.90
8778;DHT22;4425;50.872;4.712;2022-09-02T04:47:32;17.60;99.90
8778;DHT22;4425;50.872;4.712;2022-09-02T04:49:59;17.70;99.90
8778;DHT22;4425;50.872;4.712;2022-09-02T04:52:26;17.70;99.90
8778;DHT22;4425;50.872;4.712;2022-09-02T04:54:55;17.70;99.90
8778;DHT22;4425;50.872;4.712;2022-09-02T04:57:23;17.70;99.90
8778;DHT22;4425;50.872;4.712;2022-09-02T04:59:51;17.70;99.90
8778;DHT22;4425;50.872;4.712;2022-09-02T05:02:19;17.70;99.90
8778;DHT22;4425;50.872;4.712;2022-09-02T05:04:49;17.70;99.90
8778;DHT22;4425;50.872;4.712;2022-09-02T05:07:18;17.70;99.90
8778;DHT22;4425;50.872;4.712;2022-09-02T05:09:45;17.70;99.90
8778;DHT22;4425;50.872;4.712;2022-09-02T05:12:11;17.70;99.90
8778;DHT22;4425;50.872;4.712;2022-09-02T05:14:39;17.70;99.90
8778;DHT22;4425;50.872;4.712;2022-09-02T05:17:09;17.80;99.90
8778;DHT22;4425;50.872;4.712;2022-09-02T05:19:38;17.80;99.90
8778;DHT22;4425;50.872;4.712;2022-09-02T05:22:07;17.80;99.90
8778;DHT22;4425;50.872;4.712;2022-09-02T05:24:36;17.80;99.90
8778;DHT22;4425;50.872;4.712;2022-09-02T05:27:03;17.80;99.90
8778;DHT22;4425;50.872;4.712;2022-09-02T05:29:31;17.80;99.90
8778;DHT22;4425;50.872;4.712;2022-09-02T05:32:00;17.90;99.90
8778;DHT22;4425;50.872;4.712;2022-09-02T05:34:29;17.80;99.90
8778;DHT22;4425;50.872;4.712;2022-09-02T05:36:58;17.80;99.90
8778;DHT22;4425;50.872;4.712;2022-09-02T05:39:26;17.70;99.90
8778;DHT22;4425;50.872;4.712;2022-09-02T05:41:53;17.80;99.90
8778;DHT22;4425;50.872;4.712;2022-09-02T05:44:21;17.80;99.90
8778;DHT22;4425;50.872;4.712;2022-09-02T05:46:48;17.80;99.90
8778;DHT22;4425;50.872;4.712;2022-09-02T05:49:17;17.80;99.90
8778;DHT22;4425;50.872;4.712;2022-09-02T05:51:48;17.90;99.90
8778;DHT22;4425;50.872;4.712;2022-09-02T05:54:18;17.80;99.90
8778;DHT22;4425;50.872;4.712;2022-09-02T05:56:50;17.90;99.90
8778;DHT22;4425;50.872;4.712;2022-09-02T05:59:18;17.80;99.90
8778;DHT22;4425;50.872;4.712;2022-09-02T06:01:47;17.90;99.90
8778;DHT22;4425;50.872;4.712;2022-09-02T06:04:16;17.90;99.90
8778;DHT22;4425;50.872;4.712;2022-09-02T06:06:44;18.00;99.90
8778;DHT22;4425;50.872;4.712;2022-09-02T06:09:13;18.10;99.90
8778;DHT22;4425;50.872;4.712;2022-09-02T06:11:42;18.10;99.90
8778;DHT22;4425;50.872;4.712;2022-09-02T06:14:12;18.20;99.90
8778;DHT22;4425;50.872;4.712;2022-09-02T06:16:40;18.30;99.90
8778;DHT22;4425;50.872;4.712;2022-09-02T06:19:07;18.30;99.90
8778;DHT22;4425;50.872;4.712;2022-09-02T06:21:35;18.30;99.90
8778;DHT22;4425;50.872;4.712;2022-09-02T06:24:05;18.30;99.90
8778;DHT22;4425;50.872;4.712;2022-09-02T06:26:34;18.40;99.90
8778;DHT22;4425;50.872;4.712;2022-09-02T06:29:02;18.40;99.90
8778;DHT22;4425;50.872;4.712;2022-09-02T06:31:31;18.50;99.90
8778;DHT22;4425;50.872;4.712;2022-09-02T06:33:58;18.60;99.90
8778;DHT22;4425;50.872;4.712;2022-09-02T06:36:28;18.70;99.90
8778;DHT22;4425;50.872;4.712;2022-09-02T06:38:57;18.90;99.90
8778;DHT22;4425;50.872;4.712;2022-09-02T06:41:27;19.50;99.90
8778;DHT22;4425;50.872;4.712;2022-09-02T06:43:57;20.70;99.90
8778;DHT22;4425;50.872;4.712;2022-09-02T06:46:27;21.50;99.90
8778;DHT22;4425;50.872;4.712;2022-09-02T06:48:56;21.70;99.90
8778;DHT22;4425;50.872;4.712;2022-09-02T06:51:25;22.10;99.90
8778;DHT22;4425;50.872;4.712;2022-09-02T06:53:52;22.60;99.90
8778;DHT22;4425;50.872;4.712;2022-09-02T06:56:21;23.00;99.90
8778;DHT22;4425;50.872;4.712;2022-09-02T06:58:48;24.30;99.90
8778;DHT22;4425;50.872;4.712;2022-09-02T07:01:26;25.80;99.90
8778;DHT22;4425;50.872;4.712;2022-09-02T07:03:54;27.20;99.60
8778;DHT22;4425;50.872;4.712;2022-09-02T07:06:41;27.90;97.90
8778;DHT22;4425;50.872;4.712;2022-09-02T07:09:11;27.40;97.40
8778;DHT22;4425;50.872;4.712;2022-09-02T07:11:39;27.40;97.60
8778;DHT22;4425;50.872;4.712;2022-09-02T07:14:08;27.70;97.40
8778;DHT22;4425;50.872;4.712;2022-09-02T07:16:41;27.60;97.30
8778;DHT22;4425;50.872;4.712;2022-09-02T07:19:09;28.20;97.10
8778;DHT22;4425;50.872;4.712;2022-09-02T07:21:43;29.00;95.80
8778;DHT22;4425;50.872;4.712;2022-09-02T07:24:13;29.40;95.30
8778;DHT22;4425;50.872;4.712;2022-09-02T07:26:41;29.00;94.80
8778;DHT22;4425;50.872;4.712;2022-09-02T07:29:08;28.00;95.70
8778;DHT22;4425;50.872;4.712;2022-09-02T07:31:37;27.80;96.40
8778;DHT22;4425;50.872;4.712;2022-09-02T07:34:05;28.50;96.10
8778;DHT22;4425;50.872;4.712;2022-09-02T07:36:35;29.60;94.60
8778;DHT22;4425;50.872;4.712;2022-09-02T07:39:07;30.50;93.10
8778;DHT22;4425;50.872;4.712;2022-09-02T07:41:38;30.10;93.20
8778;DHT22;4425;50.872;4.712;2022-09-02T07:44:07;29.30;93.80
8778;DHT22;4425;50.872;4.712;2022-09-02T07:46:35;28.70;93.80
8778;DHT22;4425;50.872;4.712;2022-09-02T07:49:07;28.60;94.50
8778;DHT22;4425;50.872;4.712;2022-09-02T07:51:37;28.50;94.20
8778;DHT22;4425;50.872;4.712;2022-09-02T07:54:08;27.90;94.60
8778;DHT22;4425;50.872;4.712;2022-09-02T07:56:37;27.80;95.10
8778;DHT22;4425;50.872;4.712;2022-09-02T07:59:05;28.40;94.60
8778;DHT22;4425;50.872;4.712;2022-09-02T08:01:33;29.00;93.80
8778;DHT22;4425;50.872;4.712;2022-09-02T08:04:01;29.80;93.30
8778;DHT22;4425;50.872;4.712;2022-09-02T08:06:30;30.30;92.80
8778;DHT22;4425;50.872;4.712;2022-09-02T08:08:59;30.60;92.50
8778;DHT22;4425;50.872;4.712;2022-09-02T08:11:31;31.00;91.90
8778;DHT22;4425;50.872;4.712;2022-09-02T08:14:01;29.90;92.50
8778;DHT22;4425;50.872;4.712;2022-09-02T08:16:29;28.80;93.40
8778;DHT22;4425;50.872;4.712;2022-09-02T08:18:56;28.30;94.40
8778;DHT22;4425;50.872;4.712;2022-09-02T08:21:23;29.40;93.90
8778;DHT22;4425;50.872;4.712;2022-09-02T08:23:52;30.10;92.90
8778;DHT22;4425;50.872;4.712;2022-09-02T08:26:19;30.60;92.60
8778;DHT22;4425;50.872;4.712;2022-09-02T08:28:48;31.00;92.10
8778;DHT22;4425;50.872;4.712;2022-09-02T08:31:15;31.20;91.60
8778;DHT22;4425;50.872;4.712;2022-09-02T08:33:46;31.70;91.20
8778;DHT22;4425;50.872;4.712;2022-09-02T08:36:13;31.70;91.10
8778;DHT22;4425;50.872;4.712;2022-09-02T08:38:40;31.30;91.00
8778;DHT22;4425;50.872;4.712;2022-09-02T08:41:17;30.90;91.30
8778;DHT22;4425;50.872;4.712;2022-09-02T08:43:47;31.20;91.30
8778;DHT22;4425;50.872;4.712;2022-09-02T08:46:16;31.50;90.80
8778;DHT22;4425;50.872;4.712;2022-09-02T08:48:52;31.60;90.50
8778;DHT22;4425;50.872;4.712;2022-09-02T08:51:32;31.70;90.40
8778;DHT22;4425;50.872;4.712;2022-09-02T08:54:04;30.90;90.80
8778;DHT22;4425;50.872;4.712;2022-09-02T08:56:32;29.90;91.60
8778;DHT22;4425;50.872;4.712;2022-09-02T08:59:01;28.60;93.10
8778;DHT22;4425;50.872;4.712;2022-09-02T09:01:38;27.70;94.60
8778;DHT22;4425;50.872;4.712;2022-09-02T09:04:20;26.80;95.70
8778;DHT22;4425;50.872;4.712;2022-09-02T09:07:02;26.50;96.40
8778;DHT22;4425;50.872;4.712;2022-09-02T09:09:44;26.30;96.90
8778;DHT22;4425;50.872;4.712;2022-09-02T09:12:20;26.30;97.20
8778;DHT22;4425;50.872;4.712;2022-09-02T09:14:57;26.20;97.20
8778;DHT22;4425;50.872;4.712;2022-09-02T09:17:29;26.10;97.50
8778;DHT22;4425;50.872;4.712;2022-09-02T09:20:02;26.20;97.70
8778;DHT22;4425;50.872;4.712;2022-09-02T09:22:33;26.10;97.50
8778;DHT22;4425;50.872;4.712;2022-09-02T09:25:07;26.00;97.80
8778;DHT22;4425;50.872;4.712;2022-09-02T09:27:36;25.80;98.00
8778;DHT22;4425;50.872;4.712;2022-09-02T09:30:08;25.80;98.10
8778;DHT22;4425;50.872;4.712;2022-09-02T09:32:39;25.80;97.90
8778;DHT22;4425;50.872;4.712;2022-09-02T09:35:08;25.90;97.60
8778;DHT22;4425;50.872;4.712;2022-09-02T09:37:37;25.90;96.70
8778;DHT22;4425;50.872;4.712;2022-09-02T09:40:24;25.90;96.60
8778;DHT22;4425;50.872;4.712;2022-09-02T09:42:56;25.90;96.30
8778;DHT22;4425;50.872;4.712;2022-09-02T09:45:31;25.80;96.30
8778;DHT22;4425;50.872;4.712;2022-09-02T09:48:18;25.80;96.40
8778;DHT22;4425;50.872;4.712;2022-09-02T09:51:05;25.60;96.70
8778;DHT22;4425;50.872;4.712;2022-09-02T09:53:36;25.50;96.40
8778;DHT22;4425;50.872;4.712;2022-09-02T09:56:06;25.60;96.60
8778;DHT22;4425;50.872;4.712;2022-09-02T09:58:42;25.50;96.40
8778;DHT22;4425;50.872;4.712;2022-09-02T10:01:14;25.50;96.40
8778;DHT22;4425;50.872;4.712;2022-09-02T10:03:48;25.50;96.20
8778;DHT22;4425;50.872;4.712;2022-09-02T10:06:19;25.60;96.20
8778;DHT22;4425;50.872;4.712;2022-09-02T10:08:51;25.60;96.40
8778;DHT22;4425;50.872;4.712;2022-09-02T10:11:22;25.70;96.10
8778;DHT22;4425;50.872;4.712;2022-09-02T10:13:49;25.70;96.00
8778;DHT22;4425;50.872;4.712;2022-09-02T10:16:39;25.80;95.80
8778;DHT22;4425;50.872;4.712;2022-09-02T10:19:17;25.80;95.60
8778;DHT22;4425;50.872;4.712;2022-09-02T10:21:59;25.90;95.80
8778;DHT22;4425;50.872;4.712;2022-09-02T10:24:44;26.00;95.20
8778;DHT22;4425;50.872;4.712;2022-09-02T10:27:23;26.10;94.70
8778;DHT22;4425;50.872;4.712;2022-09-02T10:29:57;26.10;94.60
8778;DHT22;4425;50.872;4.712;2022-09-02T10:32:54;25.90;94.60
8778;DHT22;4425;50.872;4.712;2022-09-02T10:35:28;25.80;94.50
8778;DHT22;4425;50.872;4.712;2022-09-02T10:38:15;26.00;94.30
8778;DHT22;4425;50.872;4.712;2022-09-02T10:40:51;26.00;94.00
8778;DHT22;4425;50.872;4.712;2022-09-02T10:43:27;26.10;94.10
8778;DHT22;4425;50.872;4.712;2022-09-02T10:45:59;26.10;93.30
8778;DHT22;4425;50.872;4.712;2022-09-02T10:48:43;26.00;93.50
8778;DHT22;4425;50.872;4.712;2022-09-02T10:51:24;26.30;93.90
8778;DHT22;4425;50.872;4.712;2022-09-02T10:54:12;26.50;93.40
8778;DHT22;4425;50.872;4.712;2022-09-02T10:56:46;26.60;93.00
8778;DHT22;4425;50.872;4.712;2022-09-02T10:59:19;26.60;92.40
8778;DHT22;4425;50.872;4.712;2022-09-02T11:01:55;26.50;92.10
8778;DHT22;4425;50.872;4.712;2022-09-02T11:04:31;26.60;91.90
8778;DHT22;4425;50.872;4.712;2022-09-02T11:07:07;26.60;92.00
8778;DHT22;4425;50.872;4.712;2022-09-02T11:09:39;26.50;91.90
8778;DHT22;4425;50.872;4.712;2022-09-02T11:12:12;26.50;91.90
8778;DHT22;4425;50.872;4.712;2022-09-02T11:14:50;26.60;92.00
8778;DHT22;4425;50.872;4.712;2022-09-02T11:17:26;26.70;91.70
8778;DHT22;4425;50.872;4.712;2022-09-02T11:20:04;26.80;91.60
8778;DHT22;4425;50.872;4.712;2022-09-02T11:22:39;26.80;91.80
8778;DHT22;4425;50.872;4.712;2022-09-02T11:25:13;26.80;91.70
8778;DHT22;4425;50.872;4.712;2022-09-02T11:27:45;26.70;90.60
8778;DHT22;4425;50.872;4.712;2022-09-02T11:30:17;26.70;91.00
8778;DHT22;4425;50.872;4.712;2022-09-02T11:32:50;26.80;91.00
8778;DHT22;4425;50.872;4.712;2022-09-02T11:35:35;26.90;90.80
8778;DHT22;4425;50.872;4.712;2022-09-02T11:38:07;26.90;90.50
8778;DHT22;4425;50.872;4.712;2022-09-02T11:40:52;26.90;90.40
8778;DHT22;4425;50.872;4.712;2022-09-02T11:43:33;27.00;90.20
8778;DHT22;4425;50.872;4.712;2022-09-02T11:46:26;27.00;90.10
8778;DHT22;4425;50.872;4.712;2022-09-02T11:49:22;27.20;89.60
8778;DHT22;4425;50.872;4.712;2022-09-02T11:52:26;27.40;89.00
8778;DHT22;4425;50.872;4.712;2022-09-02T11:55:16;27.40;88.10
8778;DHT22;4425;50.872;4.712;2022-09-02T11:57:51;27.40;87.30
8778;DHT22;4425;50.872;4.712;2022-09-02T12:00:29;27.50;87.50
8778;DHT22;4425;50.872;4.712;2022-09-02T12:03:08;27.50;87.00
8778;DHT22;4425;50.872;4.712;2022-09-02T12:06:04;27.50;87.10
8778;DHT22;4425;50.872;4.712;2022-09-02T12:09:00;27.70;86.50
8778;DHT22;4425;50.872;4.712;2022-09-02T12:11:46;27.60;86.20
8778;DHT22;4425;50.872;4.712;2022-09-02T12:27:04;27.30;85.10
8778;DHT22;4425;50.872;4.712;2022-09-02T12:29:34;27.40;85.70
8778;DHT22;4425;50.872;4.712;2022-09-02T12:32:04;27.60;84.60
8778;DHT22;4425;50.872;4.712;2022-09-02T12:34:52;27.60;84.80
8778;DHT22;4425;50.872;4.712;2022-09-02T12:37:50;27.70;83.60
8778;DHT22;4425;50.872;4.712;2022-09-02T12:40:33;27.90;82.80
8778;DHT22;4425;50.872;4.712;2022-09-02T12:43:05;28.20;82.00
8778;DHT22;4425;50.872;4.712;2022-09-02T12:45:43;28.40;80.10
8778;DHT22;4425;50.872;4.712;2022-09-02T12:48:14;28.40;79.70
8778;DHT22;4425;50.872;4.712;2022-09-02T12:50:53;28.50;79.50
8778;DHT22;4425;50.872;4.712;2022-09-02T12:53:36;28.60;79.70
8778;DHT22;4425;50.872;4.712;2022-09-02T12:56:18;28.60;78.70
8778;DHT22;4425;50.872;4.712;2022-09-02T12:58:50;28.70;78.50
8778;DHT22;4425;50.872;4.712;2022-09-02T13:01:24;29.00;78.70
8778;DHT22;4425;50.872;4.712;2022-09-02T13:07:12;28.70;77.30
8778;DHT22;4425;50.872;4.712;2022-09-02T13:10:10;28.30;77.60
8778;DHT22;4425;50.872;4.712;2022-09-02T13:13:01;28.30;78.00
8778;DHT22;4425;50.872;4.712;2022-09-02T13:21:53;28.70;76.20
8778;DHT22;4425;50.872;4.712;2022-09-02T13:27:40;28.70;76.70
8778;DHT22;4425;50.872;4.712;2022-09-02T13:30:20;28.80;76.10
8778;DHT22;4425;50.872;4.712;2022-09-02T13:33:04;28.80;75.30
8778;DHT22;4425;50.872;4.712;2022-09-02T13:35:40;28.90;75.10
8778;DHT22;4425;50.872;4.712;2022-09-02T13:38:12;29.00;75.40
8778;DHT22;4425;50.872;4.712;2022-09-02T13:40:44;29.20;75.20
8778;DHT22;4425;50.872;4.712;2022-09-02T13:43:19;29.30;73.90
8778;DHT22;4425;50.872;4.712;2022-09-02T13:46:04;29.40;75.00
8778;DHT22;4425;50.872;4.712;2022-09-02T13:49:08;29.60;74.40
8778;DHT22;4425;50.872;4.712;2022-09-02T13:51:59;29.80;72.70
8778;DHT22;4425;50.872;4.712;2022-09-02T13:54:44;29.50;73.50
8778;DHT22;4425;50.872;4.712;2022-09-02T13:57:53;29.60;73.50
8778;DHT22;4425;50.872;4.712;2022-09-02T14:57:24;30.00;69.50
8778;DHT22;4425;50.872;4.712;2022-09-02T15:02:44;30.00;69.50
8778;DHT22;4425;50.872;4.712;2022-09-02T15:05:13;29.60;69.50
8778;DHT22;4425;50.872;4.712;2022-09-02T15:08:03;29.50;69.60
8778;DHT22;4425;50.872;4.712;2022-09-02T15:10:42;29.60;69.70
8778;DHT22;4425;50.872;4.712;2022-09-02T15:13:27;29.60;69.80
8778;DHT22;4425;50.872;4.712;2022-09-02T15:16:08;29.70;69.80
8778;DHT22;4425;50.872;4.712;2022-09-02T15:18:40;29.70;69.70
8778;DHT22;4425;50.872;4.712;2022-09-02T15:21:20;29.50;70.10
8778;DHT22;4425;50.872;4.712;2022-09-02T15:23:50;29.40;70.50
8778;DHT22;4425;50.872;4.712;2022-09-02T15:26:28;29.30;70.80
8778;DHT22;4425;50.872;4.712;2022-09-02T15:29:00;29.40;70.40
8778;DHT22;4425;50.872;4.712;2022-09-02T15:31:35;29.60;70.30
8778;DHT22;4425;50.872;4.712;2022-09-02T15:34:05;29.60;69.50
8778;DHT22;4425;50.872;4.712;2022-09-02T15:36:36;29.70;69.70
8778;DHT22;4425;50.872;4.712;2022-09-02T15:39:05;29.50;69.80
8778;DHT22;4425;50.872;4.712;2022-09-02T15:41:37;29.50;69.90
8778;DHT22;4425;50.872;4.712;2022-09-02T15:44:19;29.60;69.80
8778;DHT22;4425;50.872;4.712;2022-09-02T15:46:52;29.60;68.60
8778;DHT22;4425;50.872;4.712;2022-09-02T15:49:23;29.40;69.10
8778;DHT22;4425;50.872;4.712;2022-09-02T15:52:06;29.20;70.10
8778;DHT22;4425;50.872;4.712;2022-09-02T15:54:35;29.00;70.80
8778;DHT22;4425;50.872;4.712;2022-09-02T15:57:07;28.80;71.30
8778;DHT22;4425;50.872;4.712;2022-09-02T15:59:43;28.60;71.40
8778;DHT22;4425;50.872;4.712;2022-09-02T16:02:13;28.50;72.00
8778;DHT22;4425;50.872;4.712;2022-09-02T16:04:42;28.40;71.70
8778;DHT22;4425;50.872;4.712;2022-09-02T16:07:10;28.40;71.40
8778;DHT22;4425;50.872;4.712;2022-09-02T16:09:41;28.40;71.50
8778;DHT22;4425;50.872;4.712;2022-09-02T16:12:09;28.40;71.70
8778;DHT22;4425;50.872;4.712;2022-09-02T16:14:52;28.40;72.00
8778;DHT22;4425;50.872;4.712;2022-09-02T16:17:36;28.50;72.00
8778;DHT22;4425;50.872;4.712;2022-09-02T16:20:15;28.50;71.90
8778;DHT22;4425;50.872;4.712;2022-09-02T16:22:49;28.60;71.80
8778;DHT22;4425;50.872;4.712;2022-09-02T16:25:24;28.60;71.90
8778;DHT22;4425;50.872;4.712;2022-09-02T16:28:15;28.60;72.20
8778;DHT22;4425;50.872;4.712;2022-09-02T17:06:22;27.20;77.10
8778;DHT22;4425;50.872;4.712;2022-09-02T17:09:07;27.10;77.70
8778;DHT22;4425;50.872;4.712;2022-09-02T17:11:51;27.00;78.20
8778;DHT22;4425;50.872;4.712;2022-09-02T17:14:33;26.90;78.40
8778;DHT22;4425;50.872;4.712;2022-09-02T17:17:20;26.80;78.70
8778;DHT22;4425;50.872;4.712;2022-09-02T17:19:56;26.80;79.10
8778;DHT22;4425;50.872;4.712;2022-09-02T17:22:49;26.70;79.50
8778;DHT22;4425;50.872;4.712;2022-09-02T17:25:35;26.50;79.80
8778;DHT22;4425;50.872;4.712;2022-09-02T17:31:16;26.50;80.40
8778;DHT22;4425;50.872;4.712;2022-09-02T17:34:06;26.40;80.70
8778;DHT22;4425;50.872;4.712;2022-09-02T17:36:39;26.30;81.10
8778;DHT22;4425;50.872;4.712;2022-09-02T17:39:17;26.30;81.30
8778;DHT22;4425;50.872;4.712;2022-09-02T17:41:47;26.20;81.70
8778;DHT22;4425;50.872;4.712;2022-09-02T17:44:20;26.20;81.90
8778;DHT22;4425;50.872;4.712;2022-09-02T17:47:06;26.10;82.00
8778;DHT22;4425;50.872;4.712;2022-09-02T17:49:38;26.10;82.20
8778;DHT22;4425;50.872;4.712;2022-09-02T17:52:22;26.00;82.30
8778;DHT22;4425;50.872;4.712;2022-09-02T17:55:18;26.00;82.60
8778;DHT22;4425;50.872;4.712;2022-09-02T17:57:50;25.90;82.80
8778;DHT22;4425;50.872;4.712;2022-09-02T18:00:28;25.80;82.80
8778;DHT22;4425;50.872;4.712;2022-09-02T18:03:13;25.80;83.10
8778;DHT22;4425;50.872;4.712;2022-09-02T18:06:10;25.70;83.10
8778;DHT22;4425;50.872;4.712;2022-09-02T18:08:57;25.70;83.30
8778;DHT22;4425;50.872;4.712;2022-09-02T18:11:59;25.60;83.20
8778;DHT22;4425;50.872;4.712;2022-09-02T18:14:44;25.60;83.50
8778;DHT22;4425;50.872;4.712;2022-09-02T18:17:32;25.50;83.70
8778;DHT22;4425;50.872;4.712;2022-09-02T18:20:11;25.50;83.80
8778;DHT22;4425;50.872;4.712;2022-09-02T18:23:12;25.50;84.10
8778;DHT22;4425;50.872;4.712;2022-09-02T18:25:52;25.40;84.30
8778;DHT22;4425;50.872;4.712;2022-09-02T18:29:02;25.30;84.50
8778;DHT22;4425;50.872;4.712;2022-09-02T18:31:48;25.20;84.70
8778;DHT22;4425;50.872;4.712;2022-09-02T18:34:25;25.10;84.80
8778;DHT22;4425;50.872;4.712;2022-09-02T18:37:08;25.10;85.10
8778;DHT22;4425;50.872;4.712;2022-09-02T18:39:49;25.00;85.30
8778;DHT22;4425;50.872;4.712;2022-09-02T18:42:34;24.90;85.50
8778;DHT22;4425;50.872;4.712;2022-09-02T18:48:28;24.80;85.90
8778;DHT22;4425;50.872;4.712;2022-09-02T18:51:17;24.70;86.30